sensor_id;sensor_type;location;lat;lon;timestamp;pressure;altitude;pressure_sealevel;temperature;humidity
72336;BME280;65062;48.446;8.834;2023-05-10T00:02:05;96927.03;;;13.36;94.11
72336;BME280;65062;48.446;8.834;2023-05-10T00:05:06;96931.50;;;13.54;94.45
72336;BME280;65062;48.446;8.834;2023-05-10T00:08:07;96932.50;;;13.35;93.42
72336;BME280;65062;48.446;8.834;2023-05-10T00:11:07;96930.28;;;13.32;93.08
72336;BME280;65062;48.446;8.834;2023-05-10T00:14:07;96944.38;;;13.37;93.73
72336;BME280;65062;48.446;8.834;2023-05-10T00:17:08;96944.03;;;13.34;93.26
72336;BME280;65062;48.446;8.834;2023-05-10T00:20:09;96950.47;;;13.38;92.36
72336;BME280;65062;48.446;8.834;2023-05-10T00:23:09;96954.13;;;13.37;92.59
72336;BME280;65062;48.446;8.834;2023-05-10T00:26:10;96949.97;;;13.23;93.30
72336;BME280;65062;48.446;8.834;2023-05-10T00:29:10;96948.28;;;13.10;94.32
72336;BME280;65062;48.446;8.834;2023-05-10T00:32:10;96942.75;;;13.18;93.93
72336;BME280;65062;48.446;8.834;2023-05-10T00:35:11;96941.19;;;13.11;93.93
72336;BME280;65062;48.446;8.834;2023-05-10T00:38:11;96946.06;;;13.07;93.96
72336;BME280;65062;48.446;8.834;2023-05-10T00:41:11;96949.56;;;13.01;94.77
72336;BME280;65062;48.446;8.834;2023-05-10T00:44:12;96954.16;;;13.06;94.59
72336;BME280;65062;48.446;8.834;2023-05-10T00:47:12;96949.56;;;13.01;94.43
72336;BME280;65062;48.446;8.834;2023-05-10T00:50:13;96955.03;;;13.00;94.58
72336;BME280;65062;48.446;8.834;2023-05-10T00:53:14;96965.31;;;12.95;94.49
72336;BME280;65062;48.446;8.834;2023-05-10T00:56:16;96956.47;;;12.89;94.84
72336;BME280;65062;48.446;8.834;2023-05-10T00:59:16;96957.50;;;12.88;94.36
72336;BME280;65062;48.446;8.834;2023-05-10T01:02:17;96971.09;;;12.79;94.88
72336;BME280;65062;48.446;8.834;2023-05-10T01:05:18;96966.84;;;12.78;96.26
72336;BME280;65062;48.446;8.834;2023-05-10T01:08:18;96967.28;;;12.75;95.85
72336;BME280;65062;48.446;8.834;2023-05-10T01:11:19;96971.50;;;12.76;95.58
72336;BME280;65062;48.446;8.834;2023-05-10T01:14:21;96970.88;;;12.80;96.00
72336;BME280;65062;48.446;8.834;2023-05-10T01:17:22;96971.41;;;12.89;94.89
72336;BME280;65062;48.446;8.834;2023-05-10T01:20:23;96982.63;;;12.78;93.93
72336;BME280;65062;48.446;8.834;2023-05-10T01:26:45;96972.31;;;12.76;90.46
72336;BME280;65062;48.446;8.834;2023-05-10T01:36:51;96980.91;;;12.52;92.64
72336;BME280;65062;48.446;8.834;2023-05-10T01:43:01;96992.25;;;12.46;93.64
72336;BME280;65062;48.446;8.834;2023-05-10T01:46:09;96992.69;;;12.43;95.00
72336;BME280;65062;48.446;8.834;2023-05-10T01:49:24;97003.22;;;12.36;94.32
72336;BME280;65062;48.446;8.834;2023-05-10T01:52:32;97000.59;;;12.36;94.29
72336;BME280;65062;48.446;8.834;2023-05-10T01:55:38;97013.31;;;12.33;94.29
72336;BME280;65062;48.446;8.834;2023-05-10T01:58:43;97016.34;;;12.30;94.93
72336;BME280;65062;48.446;8.834;2023-05-10T02:01:47;97021.34;;;12.44;93.89
72336;BME280;65062;48.446;8.834;2023-05-10T02:04:50;97019.13;;;12.41;93.72
72336;BME280;65062;48.446;8.834;2023-05-10T02:07:53;97028.66;;;12.29;95.20
72336;BME280;65062;48.446;8.834;2023-05-10T02:10:55;97028.25;;;12.32;94.81
72336;BME280;65062;48.446;8.834;2023-05-10T02:13:57;97026.47;;;12.26;94.53
72336;BME280;65062;48.446;8.834;2023-05-10T02:16:59;97022.84;;;12.21;94.85
72336;BME280;65062;48.446;8.834;2023-05-10T02:20:01;97026.03;;;12.29;95.16
72336;BME280;65062;48.446;8.834;2023-05-10T02:23:03;97028.94;;;12.08;95.61
72336;BME280;65062;48.446;8.834;2023-05-10T02:26:04;97030.34;;;12.11;94.46
72336;BME280;65062;48.446;8.834;2023-05-10T02:29:06;97032.38;;;12.02;95.44
72336;BME280;65062;48.446;8.834;2023-05-10T02:32:10;97041.44;;;12.06;95.39
72336;BME280;65062;48.446;8.834;2023-05-10T02:35:11;97037.81;;;11.94;95.95
72336;BME280;65062;48.446;8.834;2023-05-10T02:38:14;97032.00;;;11.86;95.28
72336;BME280;65062;48.446;8.834;2023-05-10T02:41:15;97034.81;;;11.84;95.43
72336;BME280;65062;48.446;8.834;2023-05-10T02:44:18;97040.66;;;11.99;96.58
72336;BME280;65062;48.446;8.834;2023-05-10T02:47:20;97034.00;;;11.84;95.04
72336;BME280;65062;48.446;8.834;2023-05-10T02:50:22;97032.22;;;11.78;97.15
72336;BME280;65062;48.446;8.834;2023-05-10T02:53:36;97031.78;;;11.87;97.51
72336;BME280;65062;48.446;8.834;2023-05-10T02:56:42;97031.63;;;11.76;95.71
72336;BME280;65062;48.446;8.834;2023-05-10T02:59:43;97036.47;;;11.66;95.94
72336;BME280;65062;48.446;8.834;2023-05-10T03:02:45;97036.06;;;11.69;96.48
72336;BME280;65062;48.446;8.834;2023-05-10T03:05:45;97033.59;;;11.61;97.74
72336;BME280;65062;48.446;8.834;2023-05-10T03:08:45;97035.84;;;11.57;97.42
72336;BME280;65062;48.446;8.834;2023-05-10T03:15:13;97044.91;;;11.68;96.71
72336;BME280;65062;48.446;8.834;2023-05-10T03:18:22;97044.91;;;11.61;97.00
72336;BME280;65062;48.446;8.834;2023-05-10T03:21:25;97045.72;;;11.62;97.57
72336;BME280;65062;48.446;8.834;2023-05-10T03:24:29;97049.97;;;11.63;96.97
72336;BME280;65062;48.446;8.834;2023-05-10T03:27:31;97049.19;;;11.69;95.61
72336;BME280;65062;48.446;8.834;2023-05-10T03:30:32;97040.06;;;11.52;97.36
72336;BME280;65062;48.446;8.834;2023-05-10T03:33:33;97047.72;;;11.53;98.20
72336;BME280;65062;48.446;8.834;2023-05-10T03:36:34;97048.72;;;11.52;96.96
72336;BME280;65062;48.446;8.834;2023-05-10T03:39:34;97048.53;;;11.54;97.48
72336;BME280;65062;48.446;8.834;2023-05-10T03:42:34;97050.53;;;11.52;98.29
72336;BME280;65062;48.446;8.834;2023-05-10T03:45:35;97045.31;;;11.65;98.56
72336;BME280;65062;48.446;8.834;2023-05-10T03:48:35;97049.16;;;11.62;98.48
72336;BME280;65062;48.446;8.834;2023-05-10T03:51:36;97051.38;;;11.59;97.60
72336;BME280;65062;48.446;8.834;2023-05-10T03:54:36;97047.94;;;11.65;96.87
72336;BME280;65062;48.446;8.834;2023-05-10T03:57:36;97047.53;;;11.68;96.97
72336;BME280;65062;48.446;8.834;2023-05-10T04:00:37;97057.44;;;11.66;97.10
72336;BME280;65062;48.446;8.834;2023-05-10T04:03:37;97047.75;;;11.66;97.22
72336;BME280;65062;48.446;8.834;2023-05-10T04:06:38;97049.34;;;11.61;98.29
72336;BME280;65062;48.446;8.834;2023-05-10T04:09:38;97053.19;;;11.71;97.58
72336;BME280;65062;48.446;8.834;2023-05-10T04:12:39;97056.63;;;11.65;96.62
72336;BME280;65062;48.446;8.834;2023-05-10T04:15:39;97065.69;;;11.69;97.13
72336;BME280;65062;48.446;8.834;2023-05-10T04:18:40;97063.69;;;11.78;96.98
72336;BME280;65062;48.446;8.834;2023-05-10T04:21:40;97068.53;;;11.74;97.69
72336;BME280;65062;48.446;8.834;2023-05-10T04:24:40;97064.06;;;11.81;96.94
72336;BME280;65062;48.446;8.834;2023-05-10T04:27:41;97069.53;;;11.80;95.34
72336;BME280;65062;48.446;8.834;2023-05-10T04:30:41;97068.13;;;11.77;96.35
72336;BME280;65062;48.446;8.834;2023-05-10T04:33:42;97073.16;;;11.79;96.22
72336;BME280;65062;48.446;8.834;2023-05-10T04:36:42;97057.63;;;11.77;97.21
72336;BME280;65062;48.446;8.834;2023-05-10T04:39:42;97069.94;;;11.83;97.02
72336;BME280;65062;48.446;8.834;2023-05-10T04:42:43;97070.72;;;11.84;96.08
72336;BME280;65062;48.446;8.834;2023-05-10T04:45:44;97077.78;;;11.90;96.56
72336;BME280;65062;48.446;8.834;2023-05-10T04:48:44;97083.22;;;12.01;96.04
72336;BME280;65062;48.446;8.834;2023-05-10T04:51:44;97074.75;;;11.99;95.02
72336;BME280;65062;48.446;8.834;2023-05-10T04:54:45;97077.97;;;12.01;95.89
72336;BME280;65062;48.446;8.834;2023-05-10T04:57:45;97083.03;;;12.03;96.42
72336;BME280;65062;48.446;8.834;2023-05-10T05:00:46;97078.78;;;12.02;96.39
72336;BME280;65062;48.446;8.834;2023-05-10T05:03:46;97081.97;;;12.10;95.19
72336;BME280;65062;48.446;8.834;2023-05-10T05:06:46;97080.16;;;12.11;95.81
72336;BME280;65062;48.446;8.834;2023-05-10T05:09:47;97089.84;;;12.23;95.89
72336;BME280;65062;48.446;8.834;2023-05-10T05:13:01;97088.19;;;12.35;95.84
72336;BME280;65062;48.446;8.834;2023-05-10T05:16:02;97097.47;;;12.31;94.69
72336;BME280;65062;48.446;8.834;2023-05-10T05:19:02;97099.50;;;12.42;95.08
72336;BME280;65062;48.446;8.834;2023-05-10T05:22:03;97101.28;;;12.42;94.93
72336;BME280;65062;48.446;8.834;2023-05-10T05:25:03;97103.69;;;12.50;94.52
72336;BME280;65062;48.446;8.834;2023-05-10T05:28:04;97102.66;;;12.57;94.04
72336;BME280;65062;48.446;8.834;2023-05-10T05:31:05;97102.84;;;12.69;92.75
72336;BME280;65062;48.446;8.834;2023-05-10T05:34:07;97104.44;;;12.70;92.63
72336;BME280;65062;48.446;8.834;2023-05-10T05:37:12;97110.66;;;12.76;92.84
72336;BME280;65062;48.446;8.834;2023-05-10T05:40:13;97114.69;;;12.85;92.78
72336;BME280;65062;48.446;8.834;2023-05-10T05:43:14;97111.03;;;12.86;92.67
72336;BME280;65062;48.446;8.834;2023-05-10T05:46:14;97116.06;;;12.94;91.71
72336;BME280;65062;48.446;8.834;2023-05-10T05:49:14;97110.97;;;12.99;91.01
72336;BME280;65062;48.446;8.834;2023-05-10T05:52:15;97115.19;;;13.13;90.53
72336;BME280;65062;48.446;8.834;2023-05-10T05:55:15;97117.94;;;13.24;89.92
72336;BME280;65062;48.446;8.834;2023-05-10T05:58:15;97111.66;;;13.25;89.63
72336;BME280;65062;48.446;8.834;2023-05-10T06:01:16;97118.50;;;13.33;89.71
72336;BME280;65062;48.446;8.834;2023-05-10T06:04:17;97116.81;;;13.45;88.64
72336;BME280;65062;48.446;8.834;2023-05-10T06:07:17;97119.00;;;13.54;88.67
72336;BME280;65062;48.446;8.834;2023-05-10T06:10:18;97120.16;;;13.58;88.26
72336;BME280;65062;48.446;8.834;2023-05-10T06:13:18;97118.81;;;13.74;86.54
72336;BME280;65062;48.446;8.834;2023-05-10T06:16:18;97126.56;;;13.93;86.85
72336;BME280;65062;48.446;8.834;2023-05-10T06:19:19;97130.88;;;13.88;87.33
72336;BME280;65062;48.446;8.834;2023-05-10T06:22:19;97143.53;;;13.97;86.62
72336;BME280;65062;48.446;8.834;2023-05-10T06:25:20;97148.22;;;13.95;85.71
72336;BME280;65062;48.446;8.834;2023-05-10T06:28:21;97148.22;;;13.95;82.14
72336;BME280;65062;48.446;8.834;2023-05-10T06:31:21;97156.44;;;13.81;81.99
72336;BME280;65062;48.446;8.834;2023-05-10T06:34:22;97157.84;;;13.77;82.96
72336;BME280;65062;48.446;8.834;2023-05-10T06:37:22;97162.25;;;13.83;85.38
72336;BME280;65062;48.446;8.834;2023-05-10T06:40:22;97159.28;;;13.79;84.17
72336;BME280;65062;48.446;8.834;2023-05-10T06:43:23;97158.16;;;13.62;83.33
72336;BME280;65062;48.446;8.834;2023-05-10T06:46:24;97157.31;;;13.68;83.51
72336;BME280;65062;48.446;8.834;2023-05-10T06:49:25;97154.84;;;13.73;83.96
72336;BME280;65062;48.446;8.834;2023-05-10T06:52:25;97152.97;;;13.80;84.85
72336;BME280;65062;48.446;8.834;2023-05-10T06:55:26;97159.31;;;13.97;84.92
72336;BME280;65062;48.446;8.834;2023-05-10T06:58:26;97157.31;;;13.93;82.98
72336;BME280;65062;48.446;8.834;2023-05-10T07:01:26;97153.50;;;14.13;83.67
72336;BME280;65062;48.446;8.834;2023-05-10T07:04:27;97159.66;;;14.32;82.09
72336;BME280;65062;48.446;8.834;2023-05-10T07:07:27;97161.88;;;14.35;80.76
72336;BME280;65062;48.446;8.834;2023-05-10T07:10:28;97160.03;;;14.35;81.93
72336;BME280;65062;48.446;8.834;2023-05-10T07:13:33;97168.09;;;14.40;82.47
72336;BME280;65062;48.446;8.834;2023-05-10T07:16:34;97164.72;;;14.51;80.75
72336;BME280;65062;48.446;8.834;2023-05-10T07:19:34;97162.56;;;14.66;79.09
72336;BME280;65062;48.446;8.834;2023-05-10T07:22:35;97158.59;;;14.57;78.38
72336;BME280;65062;48.446;8.834;2023-05-10T07:25:36;97157.06;;;14.86;77.74
72336;BME280;65062;48.446;8.834;2023-05-10T07:28:36;97155.81;;;15.07;77.69
72336;BME280;65062;48.446;8.834;2023-05-10T07:31:37;97162.13;;;14.88;75.74
72336;BME280;65062;48.446;8.834;2023-05-10T07:34:37;97155.69;;;14.84;76.56
72336;BME280;65062;48.446;8.834;2023-05-10T07:37:38;97163.06;;;14.93;77.00
72336;BME280;65062;48.446;8.834;2023-05-10T07:40:39;97163.28;;;14.73;73.47
72336;BME280;65062;48.446;8.834;2023-05-10T07:43:39;97167.66;;;14.80;76.23
72336;BME280;65062;48.446;8.834;2023-05-10T07:46:40;97165.78;;;14.87;74.21
72336;BME280;65062;48.446;8.834;2023-05-10T07:49:40;97168.84;;;15.02;73.00
72336;BME280;65062;48.446;8.834;2023-05-10T07:52:41;97166.84;;;15.15;71.66
72336;BME280;65062;48.446;8.834;2023-05-10T07:55:41;97165.91;;;15.28;71.86
72336;BME280;65062;48.446;8.834;2023-05-10T07:58:42;97174.94;;;15.38;70.48
72336;BME280;65062;48.446;8.834;2023-05-10T08:01:43;97177.59;;;15.32;71.36
72336;BME280;65062;48.446;8.834;2023-05-10T08:04:43;97177.16;;;15.53;69.30
72336;BME280;65062;48.446;8.834;2023-05-10T08:07:44;97167.56;;;15.70;69.12
72336;BME280;65062;48.446;8.834;2023-05-10T08:10:44;97180.56;;;15.83;69.82
72336;BME280;65062;48.446;8.834;2023-05-10T08:13:45;97180.56;;;15.83;70.38
72336;BME280;65062;48.446;8.834;2023-05-10T08:16:45;97167.34;;;15.71;68.96
72336;BME280;65062;48.446;8.834;2023-05-10T08:19:45;97171.44;;;16.08;69.58
72336;BME280;65062;48.446;8.834;2023-05-10T08:22:46;97166.41;;;16.41;68.86
72336;BME280;65062;48.446;8.834;2023-05-10T08:25:46;97177.81;;;16.65;66.88
72336;BME280;65062;48.446;8.834;2023-05-10T08:28:47;97178.72;;;16.82;67.53
72336;BME280;65062;48.446;8.834;2023-05-10T08:31:47;97172.28;;;16.78;66.25
72336;BME280;65062;48.446;8.834;2023-05-10T08:34:47;97178.50;;;16.49;65.78
72336;BME280;65062;48.446;8.834;2023-05-10T08:37:48;97182.88;;;16.43;67.53
72336;BME280;65062;48.446;8.834;2023-05-10T08:40:49;97180.66;;;16.29;65.35
72336;BME280;65062;48.446;8.834;2023-05-10T08:43:52;97198.94;;;16.42;70.22
72336;BME280;65062;48.446;8.834;2023-05-10T08:46:53;97196.66;;;16.45;67.09
72336;BME280;65062;48.446;8.834;2023-05-10T08:49:55;97196.44;;;16.47;65.86
72336;BME280;65062;48.446;8.834;2023-05-10T08:52:57;97191.50;;;16.85;65.25
72336;BME280;65062;48.446;8.834;2023-05-10T08:55:57;97193.31;;;16.85;65.04
72336;BME280;65062;48.446;8.834;2023-05-10T08:58:58;97189.88;;;16.73;65.22
72336;BME280;65062;48.446;8.834;2023-05-10T09:01:59;97197.13;;;16.65;66.26
72336;BME280;65062;48.446;8.834;2023-05-10T09:05:00;97203.91;;;16.50;64.17
72336;BME280;65062;48.446;8.834;2023-05-10T09:08:01;97208.91;;;16.28;66.22
72336;BME280;65062;48.446;8.834;2023-05-10T09:11:02;97199.47;;;16.32;66.94
72336;BME280;65062;48.446;8.834;2023-05-10T09:14:03;97212.88;;;16.08;66.13
72336;BME280;65062;48.446;8.834;2023-05-10T09:17:04;97214.16;;;15.76;68.88
72336;BME280;65062;48.446;8.834;2023-05-10T09:20:05;97217.34;;;15.37;67.75
72336;BME280;65062;48.446;8.834;2023-05-10T09:23:06;97218.41;;;14.93;69.34
72336;BME280;65062;48.446;8.834;2023-05-10T09:26:07;97216.13;;;14.79;70.57
72336;BME280;65062;48.446;8.834;2023-05-10T09:29:07;97220.66;;;14.72;72.35
72336;BME280;65062;48.446;8.834;2023-05-10T09:32:08;97226.00;;;14.83;70.91
72336;BME280;65062;48.446;8.834;2023-05-10T09:35:14;97229.31;;;14.79;70.20
72336;BME280;65062;48.446;8.834;2023-05-10T09:38:14;97225.28;;;15.12;70.10
72336;BME280;65062;48.446;8.834;2023-05-10T09:41:22;97226.25;;;15.83;69.97
72336;BME280;65062;48.446;8.834;2023-05-10T09:44:25;97229.41;;;16.15;67.78
72336;BME280;65062;48.446;8.834;2023-05-10T09:47:26;97218.72;;;16.62;66.58
72336;BME280;65062;48.446;8.834;2023-05-10T09:50:27;97219.63;;;17.03;63.54
72336;BME280;65062;48.446;8.834;2023-05-10T09:53:28;97219.72;;;16.96;63.66
72336;BME280;65062;48.446;8.834;2023-05-10T09:56:35;97225.66;;;17.26;62.95
72336;BME280;65062;48.446;8.834;2023-05-10T09:59:42;97225.81;;;17.59;60.95
72336;BME280;65062;48.446;8.834;2023-05-10T10:02:45;97232.34;;;17.68;62.21
72336;BME280;65062;48.446;8.834;2023-05-10T10:05:47;97222.09;;;18.16;61.87
72336;BME280;65062;48.446;8.834;2023-05-10T10:08:48;97214.59;;;18.58;61.14
72336;BME280;65062;48.446;8.834;2023-05-10T10:11:49;97220.41;;;18.93;60.31
72336;BME280;65062;48.446;8.834;2023-05-10T10:14:50;97215.19;;;18.82;55.62
72336;BME280;65062;48.446;8.834;2023-05-10T10:17:52;97211.16;;;19.34;56.69
72336;BME280;65062;48.446;8.834;2023-05-10T10:20:54;97210.78;;;19.47;57.68
72336;BME280;65062;48.446;8.834;2023-05-10T10:23:54;97213.94;;;19.44;56.06
72336;BME280;65062;48.446;8.834;2023-05-10T10:27:02;97217.38;;;19.66;54.38
72336;BME280;65062;48.446;8.834;2023-05-10T10:30:21;97211.91;;;19.77;53.66
72336;BME280;65062;48.446;8.834;2023-05-10T10:33:40;97205.94;;;19.22;53.90
72336;BME280;65062;48.446;8.834;2023-05-10T10:36:50;97213.22;;;19.10;53.82
72336;BME280;65062;48.446;8.834;2023-05-10T10:39:50;97218.13;;;19.02;53.67
72336;BME280;65062;48.446;8.834;2023-05-10T10:42:51;97225.16;;;18.25;53.63
72336;BME280;65062;48.446;8.834;2023-05-10T10:46:11;97239.31;;;17.46;56.52
72336;BME280;65062;48.446;8.834;2023-05-10T10:49:14;97246.19;;;16.85;56.96
72336;BME280;65062;48.446;8.834;2023-05-10T10:55:28;97254.41;;;16.01;58.57
72336;BME280;65062;48.446;8.834;2023-05-10T10:58:30;97262.31;;;15.89;60.39
72336;BME280;65062;48.446;8.834;2023-05-10T11:01:34;97266.69;;;15.48;61.67
72336;BME280;65062;48.446;8.834;2023-05-10T11:04:42;97273.41;;;15.26;63.36
72336;BME280;65062;48.446;8.834;2023-05-10T11:07:58;97288.78;;;14.93;65.62
72336;BME280;65062;48.446;8.834;2023-05-10T11:14:04;97307.00;;;14.07;69.45
72336;BME280;65062;48.446;8.834;2023-05-10T11:17:31;97311.13;;;13.97;71.37
72336;BME280;65062;48.446;8.834;2023-05-10T11:20:39;97316.00;;;13.43;73.30
72336;BME280;65062;48.446;8.834;2023-05-10T11:26:40;97294.88;;;13.05;77.27
72336;BME280;65062;48.446;8.834;2023-05-10T11:29:40;97298.09;;;13.20;77.31
72336;BME280;65062;48.446;8.834;2023-05-10T11:32:43;97293.97;;;13.37;75.98
72336;BME280;65062;48.446;8.834;2023-05-10T11:35:44;97292.94;;;13.51;76.70
72336;BME280;65062;48.446;8.834;2023-05-10T11:38:45;97291.56;;;13.86;74.15
72336;BME280;65062;48.446;8.834;2023-05-10T11:41:48;97303.44;;;13.95;71.76
72336;BME280;65062;48.446;8.834;2023-05-10T11:44:49;97296.34;;;13.96;73.42
72336;BME280;65062;48.446;8.834;2023-05-10T11:47:49;97294.19;;;14.17;74.64
72336;BME280;65062;48.446;8.834;2023-05-10T11:50:50;97292.53;;;14.54;69.85
72336;BME280;65062;48.446;8.834;2023-05-10T11:53:53;97291.72;;;14.78;71.01
72336;BME280;65062;48.446;8.834;2023-05-10T11:56:54;97291.91;;;15.19;70.90
72336;BME280;65062;48.446;8.834;2023-05-10T11:59:56;97294.59;;;15.55;65.83
72336;BME280;65062;48.446;8.834;2023-05-10T12:02:57;97290.78;;;15.99;65.24
72336;BME280;65062;48.446;8.834;2023-05-10T12:05:58;97288.72;;;16.30;65.92
72336;BME280;65062;48.446;8.834;2023-05-10T12:08:59;97292.50;;;15.75;63.72
72336;BME280;65062;48.446;8.834;2023-05-10T12:11:59;97281.72;;;15.77;65.35
72336;BME280;65062;48.446;8.834;2023-05-10T12:15:01;97292.44;;;16.11;63.50
72336;BME280;65062;48.446;8.834;2023-05-10T12:18:03;97288.69;;;16.19;63.88
72336;BME280;65062;48.446;8.834;2023-05-10T12:21:04;97277.34;;;16.30;62.41
72336;BME280;65062;48.446;8.834;2023-05-10T12:24:04;97288.72;;;16.30;64.22
72336;BME280;65062;48.446;8.834;2023-05-10T12:27:08;97290.38;;;16.13;62.94
72336;BME280;65062;48.446;8.834;2023-05-10T12:30:08;97285.28;;;16.41;62.20
72336;BME280;65062;48.446;8.834;2023-05-10T12:33:13;97282.81;;;16.17;63.38
72336;BME280;65062;48.446;8.834;2023-05-10T12:36:16;97277.97;;;16.14;63.91
72336;BME280;65062;48.446;8.834;2023-05-10T12:39:16;97272.47;;;16.15;62.68
72336;BME280;65062;48.446;8.834;2023-05-10T12:42:17;97278.38;;;16.29;64.26
72336;BME280;65062;48.446;8.834;2023-05-10T12:45:18;97278.69;;;16.21;63.92
72336;BME280;65062;48.446;8.834;2023-05-10T12:48:18;97272.28;;;16.40;63.50
72336;BME280;65062;48.446;8.834;2023-05-10T12:51:19;97278.13;;;16.83;61.55
72336;BME280;65062;48.446;8.834;2023-05-10T12:54:22;97272.97;;;17.00;59.02
72336;BME280;65062;48.446;8.834;2023-05-10T12:57:22;97278.31;;;17.39;59.16
72336;BME280;65062;48.446;8.834;2023-05-10T13:00:23;97282.41;;;17.70;58.17
72336;BME280;65062;48.446;8.834;2023-05-10T13:03:23;97275.31;;;17.47;56.51
72336;BME280;65062;48.446;8.834;2023-05-10T13:06:24;97280.88;;;17.74;56.37
72336;BME280;65062;48.446;8.834;2023-05-10T13:09:25;97269.03;;;18.65;55.07
72336;BME280;65062;48.446;8.834;2023-05-10T13:12:26;97265.09;;;18.68;51.89
72336;BME280;65062;48.446;8.834;2023-05-10T13:15:26;97251.38;;;19.09;54.04
72336;BME280;65062;48.446;8.834;2023-05-10T13:18:27;97254.97;;;19.36;50.82
72336;BME280;65062;48.446;8.834;2023-05-10T13:21:28;97243.94;;;19.66;51.43
72336;BME280;65062;48.446;8.834;2023-05-10T13:24:28;97262.56;;;19.92;48.63
72336;BME280;65062;48.446;8.834;2023-05-10T13:27:28;97245.59;;;19.72;50.92
72336;BME280;65062;48.446;8.834;2023-05-10T13:30:29;97249.06;;;19.13;48.43
72336;BME280;65062;48.446;8.834;2023-05-10T13:33:29;97240.03;;;18.59;49.53
72336;BME280;65062;48.446;8.834;2023-05-10T13:36:30;97242.56;;;18.21;50.78
72336;BME280;65062;48.446;8.834;2023-05-10T13:39:30;97248.38;;;18.34;49.29
72336;BME280;65062;48.446;8.834;2023-05-10T13:42:33;97244.00;;;18.56;50.48
72336;BME280;65062;48.446;8.834;2023-05-10T13:45:33;97242.59;;;18.87;49.05
72336;BME280;65062;48.446;8.834;2023-05-10T13:48:34;97244.59;;;18.30;49.90
72336;BME280;65062;48.446;8.834;2023-05-10T13:51:34;97242.47;;;18.99;48.94
72336;BME280;65062;48.446;8.834;2023-05-10T13:54:36;97240.16;;;19.40;46.84
72336;BME280;65062;48.446;8.834;2023-05-10T13:57:36;97236.97;;;19.38;49.35
72336;BME280;65062;48.446;8.834;2023-05-10T14:00:37;97232.66;;;19.16;49.22
72336;BME280;65062;48.446;8.834;2023-05-10T14:03:37;97235.22;;;19.11;47.73
72336;BME280;65062;48.446;8.834;2023-05-10T14:06:37;97237.38;;;18.76;46.68
72336;BME280;65062;48.446;8.834;2023-05-10T14:09:38;97230.09;;;18.66;50.76
72336;BME280;65062;48.446;8.834;2023-05-10T14:12:38;97226.78;;;18.59;48.95
72336;BME280;65062;48.446;8.834;2023-05-10T14:15:38;97227.94;;;18.46;47.65
72336;BME280;65062;48.446;8.834;2023-05-10T14:18:39;97225.66;;;18.38;49.38
72336;BME280;65062;48.446;8.834;2023-05-10T14:21:39;97229.13;;;18.39;50.77
72336;BME280;65062;48.446;8.834;2023-05-10T14:24:40;97222.34;;;18.31;48.73
72336;BME280;65062;48.446;8.834;2023-05-10T14:27:40;97212.66;;;18.20;50.83
72336;BME280;65062;48.446;8.834;2023-05-10T14:30:41;97223.66;;;17.56;50.73
72336;BME280;65062;48.446;8.834;2023-05-10T14:33:41;97231.25;;;17.41;54.19
72336;BME280;65062;48.446;8.834;2023-05-10T14:36:41;97223.56;;;17.40;54.10
72336;BME280;65062;48.446;8.834;2023-05-10T14:39:42;97227.88;;;17.06;53.02
72336;BME280;65062;48.446;8.834;2023-05-10T14:42:42;97231.00;;;16.80;52.66
72336;BME280;65062;48.446;8.834;2023-05-10T14:45:43;97226.66;;;16.51;55.05
72336;BME280;65062;48.446;8.834;2023-05-10T14:48:44;97238.34;;;16.43;55.99
72336;BME280;65062;48.446;8.834;2023-05-10T14:51:45;97226.25;;;16.24;56.56
72336;BME280;65062;48.446;8.834;2023-05-10T14:54:45;97225.16;;;16.02;55.52
72336;BME280;65062;48.446;8.834;2023-05-10T14:57:46;97228.47;;;15.98;56.82
72336;BME280;65062;48.446;8.834;2023-05-10T15:00:47;97235.56;;;15.97;58.38
72336;BME280;65062;48.446;8.834;2023-05-10T15:03:47;97233.59;;;15.93;55.53
72336;BME280;65062;48.446;8.834;2023-05-10T15:06:48;97235.53;;;15.86;58.16
72336;BME280;65062;48.446;8.834;2023-05-10T15:09:48;97235.31;;;15.87;57.20
72336;BME280;65062;48.446;8.834;2023-05-10T15:12:49;97232.41;;;15.77;57.86
72336;BME280;65062;48.446;8.834;2023-05-10T15:15:50;97237.88;;;15.64;58.09
72336;BME280;65062;48.446;8.834;2023-05-10T15:18:50;97243.16;;;15.64;59.15
72336;BME280;65062;48.446;8.834;2023-05-10T15:21:51;97246.44;;;15.60;59.15
72336;BME280;65062;48.446;8.834;2023-05-10T15:24:51;97254.25;;;15.37;61.26
72336;BME280;65062;48.446;8.834;2023-05-10T15:27:52;97246.59;;;15.29;62.66
72336;BME280;65062;48.446;8.834;2023-05-10T15:30:52;97249.91;;;15.24;61.67
72336;BME280;65062;48.446;8.834;2023-05-10T15:33:57;97259.50;;;15.19;61.74
72336;BME280;65062;48.446;8.834;2023-05-10T15:37:00;97258.91;;;15.35;60.30
72336;BME280;65062;48.446;8.834;2023-05-10T15:40:00;97264.50;;;15.45;61.41
72336;BME280;65062;48.446;8.834;2023-05-10T15:43:03;97261.34;;;15.54;59.53
72336;BME280;65062;48.446;8.834;2023-05-10T15:46:05;97259.28;;;15.86;58.90
72336;BME280;65062;48.446;8.834;2023-05-10T15:49:06;97256.56;;;16.33;59.78
72336;BME280;65062;48.446;8.834;2023-05-10T15:52:06;97263.28;;;16.59;58.23
72336;BME280;65062;48.446;8.834;2023-05-10T15:55:07;97271.22;;;16.29;58.10
72336;BME280;65062;48.446;8.834;2023-05-10T15:58:17;97276.13;;;16.03;59.29
72336;BME280;65062;48.446;8.834;2023-05-10T16:01:17;97260.97;;;15.98;59.50
72336;BME280;65062;48.446;8.834;2023-05-10T16:04:18;97257.66;;;16.03;60.08
72336;BME280;65062;48.446;8.834;2023-05-10T16:07:18;97265.81;;;16.13;61.09
72336;BME280;65062;48.446;8.834;2023-05-10T16:10:18;97273.94;;;16.00;60.83
72336;BME280;65062;48.446;8.834;2023-05-10T16:13:19;97271.59;;;15.92;59.86
72336;BME280;65062;48.446;8.834;2023-05-10T16:16:19;97262.28;;;15.42;58.30
72336;BME280;65062;48.446;8.834;2023-05-10T16:19:19;97272.81;;;15.06;58.70
72336;BME280;65062;48.446;8.834;2023-05-10T16:22:20;97273.75;;;14.93;60.93
72336;BME280;65062;48.446;8.834;2023-05-10T16:25:21;97280.34;;;14.59;60.58
72336;BME280;65062;48.446;8.834;2023-05-10T16:28:21;97274.38;;;14.46;62.28